sensor_id;sensor_type;location;lat;lon;timestamp;P1;durP1;ratioP1;P2;durP2;ratioP2
24407;SDS011;12542;50.924;4.516;2022-08-19T00:01:32;13.50;;;7.95;;
24407;SDS011;12542;50.924;4.516;2022-08-19T00:04:03;10.32;;;8.50;;
24407;SDS011;12542;50.924;4.516;2022-08-19T00:06:30;10.50;;;8.02;;
24407;SDS011;12542;50.924;4.516;2022-08-19T00:08:56;11.68;;;9.02;;
24407;SDS011;12542;50.924;4.516;2022-08-19T00:11:25;15.25;;;9.20;;
24407;SDS011;12542;50.924;4.516;2022-08-19T00:13:52;13.35;;;8.73;;
24407;SDS011;12542;50.924;4.516;2022-08-19T00:16:22;13.35;;;9.15;;
24407;SDS011;12542;50.924;4.516;2022-08-19T00:18:49;12.65;;;9.75;;
24407;SDS011;12542;50.924;4.516;2022-08-19T00:21:15;12.90;;;9.88;;
24407;SDS011;12542;50.924;4.516;2022-08-19T00:23:42;18.85;;;14.73;;
24407;SDS011;12542;50.924;4.516;2022-08-19T00:26:09;19.27;;;15.65;;
24407;SDS011;12542;50.924;4.516;2022-08-19T00:28:37;25.13;;;18.77;;
24407;SDS011;12542;50.924;4.516;2022-08-19T00:31:03;25.23;;;17.42;;
24407;SDS011;12542;50.924;4.516;2022-08-19T00:33:33;26.45;;;19.05;;
24407;SDS011;12542;50.924;4.516;2022-08-19T00:35:59;25.63;;;20.05;;
24407;SDS011;12542;50.924;4.516;2022-08-19T00:38:26;30.02;;;20.60;;
24407;SDS011;12542;50.924;4.516;2022-08-19T00:40:51;33.13;;;22.33;;
24407;SDS011;12542;50.924;4.516;2022-08-19T00:43:21;34.03;;;23.60;;
24407;SDS011;12542;50.924;4.516;2022-08-19T00:45:49;32.58;;;23.98;;
24407;SDS011;12542;50.924;4.516;2022-08-19T00:48:17;34.92;;;24.00;;
24407;SDS011;12542;50.924;4.516;2022-08-19T00:50:44;38.45;;;26.70;;
24407;SDS011;12542;50.924;4.516;2022-08-19T00:53:12;41.05;;;28.08;;
24407;SDS011;12542;50.924;4.516;2022-08-19T00:55:42;40.40;;;27.40;;
24407;SDS011;12542;50.924;4.516;2022-08-19T00:58:12;43.58;;;29.38;;
24407;SDS011;12542;50.924;4.516;2022-08-19T01:00:42;43.10;;;28.25;;
24407;SDS011;12542;50.924;4.516;2022-08-19T01:03:09;44.97;;;29.85;;
24407;SDS011;12542;50.924;4.516;2022-08-19T01:05:37;47.67;;;30.08;;
24407;SDS011;12542;50.924;4.516;2022-08-19T01:08:06;45.13;;;30.73;;
24407;SDS011;12542;50.924;4.516;2022-08-19T01:10:37;44.72;;;30.45;;
24407;SDS011;12542;50.924;4.516;2022-08-19T01:13:07;46.13;;;30.27;;
24407;SDS011;12542;50.924;4.516;2022-08-19T01:15:38;45.22;;;30.23;;
24407;SDS011;12542;50.924;4.516;2022-08-19T01:20:35;45.58;;;29.75;;
24407;SDS011;12542;50.924;4.516;2022-08-19T01:23:02;49.55;;;29.92;;
24407;SDS011;12542;50.924;4.516;2022-08-19T01:25:31;48.60;;;31.77;;
24407;SDS011;12542;50.924;4.516;2022-08-19T01:28:14;43.88;;;30.08;;
24407;SDS011;12542;50.924;4.516;2022-08-19T01:30:50;47.30;;;30.55;;
24407;SDS011;12542;50.924;4.516;2022-08-19T01:33:16;49.80;;;31.35;;
24407;SDS011;12542;50.924;4.516;2022-08-19T01:35:42;48.72;;;30.55;;
24407;SDS011;12542;50.924;4.516;2022-08-19T01:38:10;48.85;;;29.40;;
24407;SDS011;12542;50.924;4.516;2022-08-19T01:40:44;51.03;;;30.27;;
24407;SDS011;12542;50.924;4.516;2022-08-19T01:43:10;51.95;;;31.33;;
24407;SDS011;12542;50.924;4.516;2022-08-19T01:45:38;52.50;;;31.45;;
24407;SDS011;12542;50.924;4.516;2022-08-19T01:48:05;51.88;;;32.25;;
24407;SDS011;12542;50.924;4.516;2022-08-19T01:50:32;51.50;;;30.85;;
24407;SDS011;12542;50.924;4.516;2022-08-19T01:52:59;50.17;;;31.25;;
24407;SDS011;12542;50.924;4.516;2022-08-19T01:55:29;50.67;;;31.35;;
24407;SDS011;12542;50.924;4.516;2022-08-19T01:57:58;51.78;;;33.90;;
24407;SDS011;12542;50.924;4.516;2022-08-19T02:00:28;56.97;;;34.38;;
24407;SDS011;12542;50.924;4.516;2022-08-19T02:02:56;52.63;;;33.38;;
24407;SDS011;12542;50.924;4.516;2022-08-19T02:05:24;53.63;;;33.22;;
24407;SDS011;12542;50.924;4.516;2022-08-19T02:07:49;47.97;;;29.00;;
24407;SDS011;12542;50.924;4.516;2022-08-19T02:10:20;50.38;;;30.05;;
24407;SDS011;12542;50.924;4.516;2022-08-19T02:12:47;51.03;;;28.88;;
24407;SDS011;12542;50.924;4.516;2022-08-19T02:15:14;46.30;;;28.52;;
24407;SDS011;12542;50.924;4.516;2022-08-19T02:17:41;50.83;;;31.65;;
24407;SDS011;12542;50.924;4.516;2022-08-19T02:20:07;49.78;;;31.45;;
24407;SDS011;12542;50.924;4.516;2022-08-19T02:22:33;50.08;;;30.65;;
24407;SDS011;12542;50.924;4.516;2022-08-19T02:25:00;51.10;;;30.65;;
24407;SDS011;12542;50.924;4.516;2022-08-19T02:27:26;49.20;;;30.45;;
24407;SDS011;12542;50.924;4.516;2022-08-19T02:29:52;48.30;;;31.10;;
24407;SDS011;12542;50.924;4.516;2022-08-19T02:32:18;45.05;;;29.42;;
24407;SDS011;12542;50.924;4.516;2022-08-19T02:34:45;46.55;;;29.83;;
24407;SDS011;12542;50.924;4.516;2022-08-19T02:37:11;44.55;;;28.48;;
24407;SDS011;12542;50.924;4.516;2022-08-19T02:39:57;48.22;;;28.77;;
24407;SDS011;12542;50.924;4.516;2022-08-19T02:42:23;41.92;;;27.15;;
24407;SDS011;12542;50.924;4.516;2022-08-19T02:44:48;43.90;;;25.92;;
24407;SDS011;12542;50.924;4.516;2022-08-19T02:47:14;44.88;;;26.25;;
24407;SDS011;12542;50.924;4.516;2022-08-19T02:49:40;39.33;;;25.30;;
24407;SDS011;12542;50.924;4.516;2022-08-19T02:52:06;47.58;;;28.40;;
24407;SDS011;12542;50.924;4.516;2022-08-19T02:54:32;41.35;;;26.38;;
24407;SDS011;12542;50.924;4.516;2022-08-19T02:56:58;42.20;;;24.05;;
24407;SDS011;12542;50.924;4.516;2022-08-19T02:59:24;39.88;;;24.50;;
24407;SDS011;12542;50.924;4.516;2022-08-19T03:01:51;36.35;;;23.02;;
24407;SDS011;12542;50.924;4.516;2022-08-19T03:04:18;39.45;;;24.02;;
24407;SDS011;12542;50.924;4.516;2022-08-19T03:06:45;36.95;;;22.48;;
24407;SDS011;12542;50.924;4.516;2022-08-19T03:09:12;32.80;;;20.80;;
24407;SDS011;12542;50.924;4.516;2022-08-19T03:11:40;35.72;;;22.60;;
24407;SDS011;12542;50.924;4.516;2022-08-19T03:14:07;38.65;;;23.38;;
24407;SDS011;12542;50.924;4.516;2022-08-19T03:16:36;36.00;;;21.27;;
24407;SDS011;12542;50.924;4.516;2022-08-19T03:19:12;34.03;;;19.90;;
24407;SDS011;12542;50.924;4.516;2022-08-19T03:21:38;34.80;;;21.10;;
24407;SDS011;12542;50.924;4.516;2022-08-19T03:24:05;37.13;;;21.20;;
24407;SDS011;12542;50.924;4.516;2022-08-19T03:26:32;34.47;;;19.27;;
24407;SDS011;12542;50.924;4.516;2022-08-19T03:29:03;30.20;;;17.85;;
24407;SDS011;12542;50.924;4.516;2022-08-19T03:31:31;28.15;;;18.15;;
24407;SDS011;12542;50.924;4.516;2022-08-19T03:33:57;31.27;;;18.17;;
24407;SDS011;12542;50.924;4.516;2022-08-19T03:36:25;31.50;;;17.90;;
24407;SDS011;12542;50.924;4.516;2022-08-19T03:38:53;28.75;;;17.27;;
24407;SDS011;12542;50.924;4.516;2022-08-19T03:41:22;28.52;;;17.65;;
24407;SDS011;12542;50.924;4.516;2022-08-19T03:43:50;28.77;;;18.05;;
24407;SDS011;12542;50.924;4.516;2022-08-19T03:46:22;27.80;;;16.90;;
24407;SDS011;12542;50.924;4.516;2022-08-19T03:48:53;29.65;;;17.42;;
24407;SDS011;12542;50.924;4.516;2022-08-19T03:51:24;29.60;;;16.20;;
24407;SDS011;12542;50.924;4.516;2022-08-19T03:53:58;28.85;;;16.02;;
24407;SDS011;12542;50.924;4.516;2022-08-19T03:56:29;28.52;;;16.33;;
24407;SDS011;12542;50.924;4.516;2022-08-19T03:58:56;27.33;;;17.02;;
24407;SDS011;12542;50.924;4.516;2022-08-19T04:01:23;26.23;;;15.90;;
24407;SDS011;12542;50.924;4.516;2022-08-19T04:03:51;27.55;;;15.95;;
24407;SDS011;12542;50.924;4.516;2022-08-19T04:06:19;29.88;;;16.13;;
24407;SDS011;12542;50.924;4.516;2022-08-19T04:08:50;28.02;;;14.63;;
24407;SDS011;12542;50.924;4.516;2022-08-19T04:11:18;29.48;;;14.88;;
24407;SDS011;12542;50.924;4.516;2022-08-19T04:13:46;30.13;;;15.98;;
24407;SDS011;12542;50.924;4.516;2022-08-19T04:16:12;31.88;;;16.27;;
24407;SDS011;12542;50.924;4.516;2022-08-19T04:18:39;28.13;;;15.82;;
24407;SDS011;12542;50.924;4.516;2022-08-19T04:21:07;30.25;;;15.95;;
24407;SDS011;12542;50.924;4.516;2022-08-19T04:23:34;30.40;;;17.08;;
24407;SDS011;12542;50.924;4.516;2022-08-19T04:26:01;28.17;;;16.42;;
24407;SDS011;12542;50.924;4.516;2022-08-19T04:28:27;29.77;;;16.58;;
24407;SDS011;12542;50.924;4.516;2022-08-19T04:30:54;27.70;;;15.73;;
24407;SDS011;12542;50.924;4.516;2022-08-19T04:33:22;26.17;;;15.40;;
24407;SDS011;12542;50.924;4.516;2022-08-19T04:35:50;26.63;;;15.02;;
24407;SDS011;12542;50.924;4.516;2022-08-19T04:38:21;25.48;;;14.35;;
24407;SDS011;12542;50.924;4.516;2022-08-19T04:40:50;30.63;;;16.08;;
24407;SDS011;12542;50.924;4.516;2022-08-19T04:43:36;25.50;;;15.05;;
24407;SDS011;12542;50.924;4.516;2022-08-19T04:46:04;26.20;;;15.65;;
24407;SDS011;12542;50.924;4.516;2022-08-19T04:48:31;29.10;;;15.25;;
24407;SDS011;12542;50.924;4.516;2022-08-19T04:50:58;26.65;;;14.75;;
24407;SDS011;12542;50.924;4.516;2022-08-19T04:53:27;28.30;;;15.43;;
24407;SDS011;12542;50.924;4.516;2022-08-19T04:55:55;29.48;;;15.43;;
24407;SDS011;12542;50.924;4.516;2022-08-19T04:58:25;31.67;;;16.30;;
24407;SDS011;12542;50.924;4.516;2022-08-19T05:00:53;30.88;;;15.77;;
24407;SDS011;12542;50.924;4.516;2022-08-19T05:03:19;26.00;;;15.70;;
24407;SDS011;12542;50.924;4.516;2022-08-19T05:05:46;27.55;;;15.02;;
24407;SDS011;12542;50.924;4.516;2022-08-19T05:08:17;26.50;;;15.50;;
24407;SDS011;12542;50.924;4.516;2022-08-19T05:10:46;30.63;;;15.75;;
24407;SDS011;12542;50.924;4.516;2022-08-19T05:13:17;25.08;;;14.38;;
24407;SDS011;12542;50.924;4.516;2022-08-19T05:15:53;23.83;;;14.63;;
24407;SDS011;12542;50.924;4.516;2022-08-19T05:18:23;23.90;;;12.82;;
24407;SDS011;12542;50.924;4.516;2022-08-19T05:23:58;24.17;;;12.35;;
24407;SDS011;12542;50.924;4.516;2022-08-19T05:26:25;22.50;;;12.40;;
24407;SDS011;12542;50.924;4.516;2022-08-19T05:28:55;22.00;;;11.18;;
24407;SDS011;12542;50.924;4.516;2022-08-19T05:31:21;23.42;;;11.80;;
24407;SDS011;12542;50.924;4.516;2022-08-19T05:33:47;20.13;;;10.88;;
24407;SDS011;12542;50.924;4.516;2022-08-19T05:36:15;17.05;;;9.70;;
24407;SDS011;12542;50.924;4.516;2022-08-19T05:38:40;15.52;;;9.50;;
24407;SDS011;12542;50.924;4.516;2022-08-19T05:41:07;16.67;;;9.35;;
24407;SDS011;12542;50.924;4.516;2022-08-19T05:43:39;16.30;;;8.98;;
24407;SDS011;12542;50.924;4.516;2022-08-19T05:46:07;14.20;;;8.43;;
24407;SDS011;12542;50.924;4.516;2022-08-19T05:48:43;10.52;;;7.10;;
24407;SDS011;12542;50.924;4.516;2022-08-19T05:51:12;16.13;;;7.35;;
24407;SDS011;12542;50.924;4.516;2022-08-19T05:53:38;14.88;;;7.10;;
24407;SDS011;12542;50.924;4.516;2022-08-19T05:56:04;17.45;;;7.68;;
24407;SDS011;12542;50.924;4.516;2022-08-19T05:58:39;12.75;;;6.70;;
24407;SDS011;12542;50.924;4.516;2022-08-19T06:01:09;13.75;;;6.55;;
24407;SDS011;12542;50.924;4.516;2022-08-19T06:03:39;12.05;;;6.22;;
24407;SDS011;12542;50.924;4.516;2022-08-19T06:06:07;15.43;;;6.65;;
24407;SDS011;12542;50.924;4.516;2022-08-19T06:08:34;15.75;;;5.70;;
24407;SDS011;12542;50.924;4.516;2022-08-19T06:11:23;13.98;;;6.00;;
24407;SDS011;12542;50.924;4.516;2022-08-19T06:14:03;12.23;;;4.97;;
24407;SDS011;12542;50.924;4.516;2022-08-19T06:16:35;10.38;;;5.50;;
24407;SDS011;12542;50.924;4.516;2022-08-19T06:19:04;15.88;;;6.40;;
24407;SDS011;12542;50.924;4.516;2022-08-19T06:21:31;12.20;;;6.25;;
24407;SDS011;12542;50.924;4.516;2022-08-19T06:24:02;12.25;;;6.05;;
24407;SDS011;12542;50.924;4.516;2022-08-19T06:26:29;16.30;;;6.30;;
24407;SDS011;12542;50.924;4.516;2022-08-19T06:28:58;16.05;;;6.97;;
24407;SDS011;12542;50.924;4.516;2022-08-19T06:31:26;13.90;;;7.40;;
24407;SDS011;12542;50.924;4.516;2022-08-19T06:33:53;12.75;;;6.30;;
24407;SDS011;12542;50.924;4.516;2022-08-19T06:36:26;16.80;;;6.95;;
24407;SDS011;12542;50.924;4.516;2022-08-19T06:39:00;17.30;;;6.47;;
24407;SDS011;12542;50.924;4.516;2022-08-19T06:41:29;17.58;;;6.90;;
24407;SDS011;12542;50.924;4.516;2022-08-19T06:43:55;13.70;;;7.15;;
24407;SDS011;12542;50.924;4.516;2022-08-19T06:46:24;16.10;;;6.78;;
24407;SDS011;12542;50.924;4.516;2022-08-19T06:48:50;17.52;;;6.57;;
24407;SDS011;12542;50.924;4.516;2022-08-19T06:51:19;16.83;;;6.88;;
24407;SDS011;12542;50.924;4.516;2022-08-19T06:53:48;11.95;;;5.78;;
24407;SDS011;12542;50.924;4.516;2022-08-19T06:56:15;14.55;;;6.60;;
24407;SDS011;12542;50.924;4.516;2022-08-19T06:58:45;14.40;;;6.25;;
24407;SDS011;12542;50.924;4.516;2022-08-19T07:01:11;12.38;;;5.97;;
24407;SDS011;12542;50.924;4.516;2022-08-19T07:03:37;12.35;;;5.57;;
24407;SDS011;12542;50.924;4.516;2022-08-19T07:08:32;11.93;;;5.70;;
24407;SDS011;12542;50.924;4.516;2022-08-19T07:11:00;14.32;;;5.63;;
24407;SDS011;12542;50.924;4.516;2022-08-19T07:13:26;15.05;;;6.03;;
24407;SDS011;12542;50.924;4.516;2022-08-19T07:15:51;16.95;;;6.00;;
24407;SDS011;12542;50.924;4.516;2022-08-19T07:18:18;17.35;;;5.93;;
24407;SDS011;12542;50.924;4.516;2022-08-19T07:20:45;11.30;;;5.40;;
24407;SDS011;12542;50.924;4.516;2022-08-19T07:23:11;10.95;;;5.07;;
24407;SDS011;12542;50.924;4.516;2022-08-19T07:25:37;14.65;;;5.72;;
24407;SDS011;12542;50.924;4.516;2022-08-19T07:28:06;10.27;;;5.18;;
24407;SDS011;12542;50.924;4.516;2022-08-19T07:30:35;11.23;;;5.07;;
24407;SDS011;12542;50.924;4.516;2022-08-19T07:33:07;12.75;;;5.55;;
24407;SDS011;12542;50.924;4.516;2022-08-19T07:35:33;14.10;;;5.53;;
24407;SDS011;12542;50.924;4.516;2022-08-19T07:38:02;11.63;;;5.53;;
24407;SDS011;12542;50.924;4.516;2022-08-19T07:40:28;9.90;;;5.05;;
24407;SDS011;12542;50.924;4.516;2022-08-19T07:42:54;9.02;;;4.95;;
24407;SDS011;12542;50.924;4.516;2022-08-19T07:45:20;8.52;;;5.00;;
24407;SDS011;12542;50.924;4.516;2022-08-19T07:47:46;8.55;;;5.05;;
24407;SDS011;12542;50.924;4.516;2022-08-19T07:50:15;9.52;;;4.75;;
24407;SDS011;12542;50.924;4.516;2022-08-19T07:52:41;8.38;;;4.90;;
24407;SDS011;12542;50.924;4.516;2022-08-19T07:55:11;9.38;;;3.97;;
24407;SDS011;12542;50.924;4.516;2022-08-19T07:57:42;9.15;;;3.78;;
24407;SDS011;12542;50.924;4.516;2022-08-19T08:00:11;9.27;;;4.65;;
24407;SDS011;12542;50.924;4.516;2022-08-19T08:02:37;8.10;;;4.20;;
24407;SDS011;12542;50.924;4.516;2022-08-19T08:05:06;7.20;;;4.00;;
24407;SDS011;12542;50.924;4.516;2022-08-19T08:07:50;7.55;;;4.40;;
24407;SDS011;12542;50.924;4.516;2022-08-19T08:10:37;8.00;;;3.83;;
24407;SDS011;12542;50.924;4.516;2022-08-19T08:13:03;9.95;;;4.47;;
24407;SDS011;12542;50.924;4.516;2022-08-19T08:15:30;13.77;;;4.80;;
24407;SDS011;12542;50.924;4.516;2022-08-19T08:17:59;6.97;;;3.33;;
24407;SDS011;12542;50.924;4.516;2022-08-19T08:20:27;9.15;;;3.95;;
24407;SDS011;12542;50.924;4.516;2022-08-19T08:22:55;6.60;;;3.42;;
24407;SDS011;12542;50.924;4.516;2022-08-19T08:25:40;8.23;;;3.38;;
24407;SDS011;12542;50.924;4.516;2022-08-19T08:28:06;9.60;;;3.83;;
24407;SDS011;12542;50.924;4.516;2022-08-19T08:30:35;4.72;;;3.05;;
24407;SDS011;12542;50.924;4.516;2022-08-19T08:33:01;7.95;;;3.28;;
24407;SDS011;12542;50.924;4.516;2022-08-19T08:35:28;5.95;;;3.15;;
24407;SDS011;12542;50.924;4.516;2022-08-19T08:37:59;8.15;;;3.28;;
24407;SDS011;12542;50.924;4.516;2022-08-19T08:40:48;12.88;;;4.57;;
24407;SDS011;12542;50.924;4.516;2022-08-19T08:43:21;9.35;;;3.30;;
24407;SDS011;12542;50.924;4.516;2022-08-19T08:45:59;7.72;;;3.65;;
24407;SDS011;12542;50.924;4.516;2022-08-19T08:48:37;6.50;;;2.88;;
24407;SDS011;12542;50.924;4.516;2022-08-19T08:51:18;5.82;;;3.38;;
24407;SDS011;12542;50.924;4.516;2022-08-19T08:53:51;9.30;;;3.60;;
24407;SDS011;12542;50.924;4.516;2022-08-19T08:56:20;6.03;;;3.50;;
24407;SDS011;12542;50.924;4.516;2022-08-19T08:58:51;8.48;;;3.10;;
24407;SDS011;12542;50.924;4.516;2022-08-19T09:01:27;11.60;;;4.15;;
24407;SDS011;12542;50.924;4.516;2022-08-19T09:03:53;7.10;;;4.03;;
24407;SDS011;12542;50.924;4.516;2022-08-19T09:14:34;13.02;;;3.72;;
24407;SDS011;12542;50.924;4.516;2022-08-19T09:17:02;7.38;;;3.67;;
24407;SDS011;12542;50.924;4.516;2022-08-19T09:19:28;10.68;;;4.10;;
24407;SDS011;12542;50.924;4.516;2022-08-19T09:21:55;7.97;;;3.63;;
24407;SDS011;12542;50.924;4.516;2022-08-19T09:24:20;7.90;;;3.85;;
24407;SDS011;12542;50.924;4.516;2022-08-19T09:26:47;6.93;;;4.03;;
24407;SDS011;12542;50.924;4.516;2022-08-19T09:29:14;10.85;;;4.65;;
24407;SDS011;12542;50.924;4.516;2022-08-19T09:31:40;9.27;;;4.10;;
24407;SDS011;12542;50.924;4.516;2022-08-19T09:34:06;8.80;;;4.05;;
24407;SDS011;12542;50.924;4.516;2022-08-19T09:36:31;6.60;;;3.55;;
24407;SDS011;12542;50.924;4.516;2022-08-19T09:39:04;7.07;;;3.83;;
24407;SDS011;12542;50.924;4.516;2022-08-19T09:41:31;10.25;;;4.38;;
24407;SDS011;12542;50.924;4.516;2022-08-19T09:44:01;6.03;;;3.80;;
24407;SDS011;12542;50.924;4.516;2022-08-19T09:46:28;6.43;;;3.85;;
24407;SDS011;12542;50.924;4.516;2022-08-19T09:48:56;7.60;;;4.45;;
24407;SDS011;12542;50.924;4.516;2022-08-19T09:51:27;8.02;;;4.22;;
24407;SDS011;12542;50.924;4.516;2022-08-19T09:53:58;10.65;;;3.95;;
24407;SDS011;12542;50.924;4.516;2022-08-19T09:56:26;10.65;;;4.47;;
24407;SDS011;12542;50.924;4.516;2022-08-19T09:58:53;8.55;;;4.13;;
24407;SDS011;12542;50.924;4.516;2022-08-19T10:01:22;8.48;;;4.30;;
24407;SDS011;12542;50.924;4.516;2022-08-19T10:03:50;8.30;;;3.72;;
24407;SDS011;12542;50.924;4.516;2022-08-19T10:06:21;9.52;;;4.28;;
24407;SDS011;12542;50.924;4.516;2022-08-19T10:08:48;8.63;;;3.90;;
24407;SDS011;12542;50.924;4.516;2022-08-19T10:11:16;8.32;;;3.97;;
24407;SDS011;12542;50.924;4.516;2022-08-19T10:13:45;5.88;;;4.00;;
24407;SDS011;12542;50.924;4.516;2022-08-19T10:16:15;10.52;;;4.38;;
24407;SDS011;12542;50.924;4.516;2022-08-19T10:18:44;6.35;;;3.63;;
24407;SDS011;12542;50.924;4.516;2022-08-19T10:21:32;7.60;;;3.80;;
24407;SDS011;12542;50.924;4.516;2022-08-19T10:24:03;7.18;;;3.95;;
24407;SDS011;12542;50.924;4.516;2022-08-19T10:26:31;5.72;;;3.10;;
24407;SDS011;12542;50.924;4.516;2022-08-19T10:29:01;6.60;;;3.47;;
24407;SDS011;12542;50.924;4.516;2022-08-19T10:31:28;4.63;;;3.35;;
24407;SDS011;12542;50.924;4.516;2022-08-19T10:33:55;7.18;;;4.03;;
24407;SDS011;12542;50.924;4.516;2022-08-19T10:36:28;7.40;;;3.53;;
24407;SDS011;12542;50.924;4.516;2022-08-19T10:38:58;7.28;;;3.97;;
24407;SDS011;12542;50.924;4.516;2022-08-19T10:41:32;5.25;;;3.58;;
24407;SDS011;12542;50.924;4.516;2022-08-19T10:44:02;6.63;;;3.33;;
24407;SDS011;12542;50.924;4.516;2022-08-19T10:46:32;6.20;;;3.15;;
24407;SDS011;12542;50.924;4.516;2022-08-19T10:49:01;6.65;;;3.38;;
24407;SDS011;12542;50.924;4.516;2022-08-19T10:51:27;6.45;;;3.03;;
24407;SDS011;12542;50.924;4.516;2022-08-19T10:54:12;8.87;;;3.10;;
24407;SDS011;12542;50.924;4.516;2022-08-19T10:56:38;4.60;;;3.05;;
24407;SDS011;12542;50.924;4.516;2022-08-19T10:59:29;4.30;;;2.55;;
24407;SDS011;12542;50.924;4.516;2022-08-19T11:01:59;4.60;;;2.70;;
24407;SDS011;12542;50.924;4.516;2022-08-19T11:04:26;5.50;;;2.80;;
24407;SDS011;12542;50.924;4.516;2022-08-19T11:06:52;4.78;;;2.88;;
24407;SDS011;12542;50.924;4.516;2022-08-19T11:09:19;6.47;;;2.55;;
24407;SDS011;12542;50.924;4.516;2022-08-19T11:11:50;5.65;;;3.15;;
24407;SDS011;12542;50.924;4.516;2022-08-19T11:14:19;9.38;;;3.13;;
24407;SDS011;12542;50.924;4.516;2022-08-19T11:16:47;5.68;;;2.90;;
24407;SDS011;12542;50.924;4.516;2022-08-19T11:19:14;9.27;;;3.38;;
24407;SDS011;12542;50.924;4.516;2022-08-19T11:21:44;7.40;;;3.17;;
24407;SDS011;12542;50.924;4.516;2022-08-19T11:24:14;5.60;;;3.53;;
24407;SDS011;12542;50.924;4.516;2022-08-19T11:26:42;8.10;;;3.72;;
24407;SDS011;12542;50.924;4.516;2022-08-19T11:29:10;7.60;;;3.95;;
24407;SDS011;12542;50.924;4.516;2022-08-19T11:31:38;9.77;;;4.45;;
24407;SDS011;12542;50.924;4.516;2022-08-19T11:34:06;6.68;;;3.72;;
24407;SDS011;12542;50.924;4.516;2022-08-19T11:36:34;10.20;;;3.95;;
24407;SDS011;12542;50.924;4.516;2022-08-19T11:39:04;6.50;;;3.67;;
24407;SDS011;12542;50.924;4.516;2022-08-19T11:41:31;4.22;;;3.38;;
24407;SDS011;12542;50.924;4.516;2022-08-19T11:43:57;8.95;;;3.85;;
24407;SDS011;12542;50.924;4.516;2022-08-19T11:46:27;5.22;;;3.15;;
24407;SDS011;12542;50.924;4.516;2022-08-19T11:48:55;4.78;;;2.63;;
24407;SDS011;12542;50.924;4.516;2022-08-19T11:51:23;4.70;;;2.50;;
24407;SDS011;12542;50.924;4.516;2022-08-19T11:53:50;5.40;;;2.80;;
24407;SDS011;12542;50.924;4.516;2022-08-19T11:56:17;5.38;;;2.63;;
24407;SDS011;12542;50.924;4.516;2022-08-19T11:58:45;5.63;;;2.15;;
24407;SDS011;12542;50.924;4.516;2022-08-19T12:01:15;6.20;;;2.60;;
24407;SDS011;12542;50.924;4.516;2022-08-19T12:03:44;4.10;;;2.72;;
24407;SDS011;12542;50.924;4.516;2022-08-19T12:06:16;4.60;;;2.40;;
24407;SDS011;12542;50.924;4.516;2022-08-19T12:08:48;4.00;;;3.10;;
24407;SDS011;12542;50.924;4.516;2022-08-19T12:11:15;3.85;;;2.50;;
24407;SDS011;12542;50.924;4.516;2022-08-19T12:13:41;5.90;;;3.10;;
24407;SDS011;12542;50.924;4.516;2022-08-19T12:16:10;7.40;;;3.95;;
24407;SDS011;12542;50.924;4.516;2022-08-19T12:18:41;7.03;;;4.57;;
24407;SDS011;12542;50.924;4.516;2022-08-19T12:21:11;8.25;;;4.72;;
24407;SDS011;12542;50.924;4.516;2022-08-19T12:23:38;9.50;;;5.82;;
24407;SDS011;12542;50.924;4.516;2022-08-19T12:26:05;9.00;;;5.25;;
24407;SDS011;12542;50.924;4.516;2022-08-19T12:28:31;7.30;;;5.20;;
24407;SDS011;12542;50.924;4.516;2022-08-19T12:30:57;7.07;;;5.80;;
24407;SDS011;12542;50.924;4.516;2022-08-19T12:33:23;9.18;;;5.75;;
24407;SDS011;12542;50.924;4.516;2022-08-19T12:35:51;6.93;;;5.30;;
24407;SDS011;12542;50.924;4.516;2022-08-19T12:38:18;6.35;;;5.50;;
24407;SDS011;12542;50.924;4.516;2022-08-19T12:40:46;8.15;;;4.97;;
24407;SDS011;12542;50.924;4.516;2022-08-19T12:43:13;6.95;;;5.40;;
24407;SDS011;12542;50.924;4.516;2022-08-19T12:45:41;11.00;;;4.85;;
24407;SDS011;12542;50.924;4.516;2022-08-19T12:48:08;6.32;;;5.00;;
24407;SDS011;12542;50.924;4.516;2022-08-19T12:50:34;5.28;;;4.18;;
24407;SDS011;12542;50.924;4.516;2022-08-19T12:53:00;6.63;;;3.88;;
24407;SDS011;12542;50.924;4.516;2022-08-19T12:55:26;7.65;;;4.30;;
24407;SDS011;12542;50.924;4.516;2022-08-19T12:57:55;4.85;;;3.78;;
24407;SDS011;12542;50.924;4.516;2022-08-19T13:00:21;5.40;;;3.40;;
24407;SDS011;12542;50.924;4.516;2022-08-19T13:02:48;8.50;;;3.15;;
24407;SDS011;12542;50.924;4.516;2022-08-19T13:05:20;5.82;;;4.00;;
24407;SDS011;12542;50.924;4.516;2022-08-19T13:07:49;4.65;;;3.30;;
24407;SDS011;12542;50.924;4.516;2022-08-19T13:10:16;6.70;;;3.22;;
24407;SDS011;12542;50.924;4.516;2022-08-19T13:12:45;3.90;;;2.92;;
24407;SDS011;12542;50.924;4.516;2022-08-19T13:15:12;6.47;;;3.15;;
24407;SDS011;12542;50.924;4.516;2022-08-19T13:17:39;6.57;;;2.70;;
24407;SDS011;12542;50.924;4.516;2022-08-19T13:20:05;4.10;;;2.78;;
24407;SDS011;12542;50.924;4.516;2022-08-19T13:22:35;6.70;;;2.95;;
24407;SDS011;12542;50.924;4.516;2022-08-19T13:25:05;4.78;;;2.15;;
24407;SDS011;12542;50.924;4.516;2022-08-19T13:27:37;3.85;;;1.80;;
24407;SDS011;12542;50.924;4.516;2022-08-19T13:30:06;3.03;;;1.95;;
24407;SDS011;12542;50.924;4.516;2022-08-19T13:32:52;3.65;;;2.28;;
24407;SDS011;12542;50.924;4.516;2022-08-19T13:35:37;2.65;;;1.50;;
24407;SDS011;12542;50.924;4.516;2022-08-19T13:38:04;4.30;;;2.20;;
24407;SDS011;12542;50.924;4.516;2022-08-19T13:40:33;3.90;;;1.75;;
24407;SDS011;12542;50.924;4.516;2022-08-19T13:43:04;4.00;;;2.13;;
24407;SDS011;12542;50.924;4.516;2022-08-19T13:45:31;5.18;;;1.88;;
24407;SDS011;12542;50.924;4.516;2022-08-19T13:48:01;3.97;;;1.58;;
24407;SDS011;12542;50.924;4.516;2022-08-19T13:50:33;3.00;;;1.35;;
24407;SDS011;12542;50.924;4.516;2022-08-19T13:53:03;4.07;;;1.67;;
24407;SDS011;12542;50.924;4.516;2022-08-19T13:55:29;1.67;;;1.10;;
24407;SDS011;12542;50.924;4.516;2022-08-19T13:57:56;4.57;;;1.48;;
24407;SDS011;12542;50.924;4.516;2022-08-19T14:00:30;2.50;;;1.30;;
24407;SDS011;12542;50.924;4.516;2022-08-19T14:02:58;4.40;;;1.67;;
24407;SDS011;12542;50.924;4.516;2022-08-19T14:05:25;3.30;;;1.42;;
24407;SDS011;12542;50.924;4.516;2022-08-19T14:07:53;2.30;;;1.58;;
24407;SDS011;12542;50.924;4.516;2022-08-19T14:10:19;3.40;;;1.10;;
24407;SDS011;12542;50.924;4.516;2022-08-19T14:12:46;1.98;;;1.00;;
24407;SDS011;12542;50.924;4.516;2022-08-19T14:15:13;2.60;;;0.93;;
24407;SDS011;12542;50.924;4.516;2022-08-19T14:17:39;5.50;;;1.05;;
24407;SDS011;12542;50.924;4.516;2022-08-19T14:20:08;2.15;;;1.13;;
24407;SDS011;12542;50.924;4.516;2022-08-19T14:22:38;5.35;;;1.20;;
24407;SDS011;12542;50.924;4.516;2022-08-19T14:25:07;2.95;;;1.00;;
24407;SDS011;12542;50.924;4.516;2022-08-19T14:27:35;3.45;;;0.85;;
24407;SDS011;12542;50.924;4.516;2022-08-19T14:30:04;3.05;;;1.10;;
24407;SDS011;12542;50.924;4.516;2022-08-19T14:32:31;1.95;;;1.20;;
24407;SDS011;12542;50.924;4.516;2022-08-19T14:35:00;4.25;;;1.67;;
24407;SDS011;12542;50.924;4.516;2022-08-19T14:37:27;3.72;;;1.30;;
24407;SDS011;12542;50.924;4.516;2022-08-19T14:39:53;5.05;;;1.02;;
24407;SDS011;12542;50.924;4.516;2022-08-19T14:42:21;1.48;;;0.75;;
24407;SDS011;12542;50.924;4.516;2022-08-19T14:44:49;2.63;;;1.27;;
24407;SDS011;12542;50.924;4.516;2022-08-19T14:47:17;3.45;;;1.35;;
24407;SDS011;12542;50.924;4.516;2022-08-19T14:49:45;4.03;;;1.52;;
24407;SDS011;12542;50.924;4.516;2022-08-19T14:52:10;2.85;;;1.85;;
24407;SDS011;12542;50.924;4.516;2022-08-19T14:54:36;2.75;;;1.25;;
24407;SDS011;12542;50.924;4.516;2022-08-19T14:57:04;3.28;;;1.48;;
24407;SDS011;12542;50.924;4.516;2022-08-19T14:59:33;4.60;;;1.60;;
24407;SDS011;12542;50.924;4.516;2022-08-19T15:01:59;2.25;;;1.60;;